CheckWX is a tool to help pilots better visualize weather data.  It is not intended as a substitute for an official pre-flight weather briefing.

11:39:05 UTC

KEKX METAR
Addington Field Airport
Elizabethtown, Kentucky, USA
Current

24 mins ago

KEKX 241115Z AUTO 00000KT 10SM CLR 19/19 A3014 RMK AO2 T01930190
Observed
May-24 @ 11:15 UTC
Visibility
10 SM
Flight Rules
VFR
Cloud Levels
  • Clear skies
Temperature
19°C / 66°F
Dewpoint
19°C / 66°F
Humidity
100%
Altimeter
30.14" Hg
Pressure
1020.62 hPa
Previous

44 mins ago

KEKX 241055Z AUTO 00000KT 10SM CLR 19/19 A3013 RMK AO2 T01850185
Observed
May-24 @ 10:55 UTC
Visibility
10 SM
Flight Rules
VFR
Cloud Levels
  • Clear skies
Temperature
19°C / 66°F
Dewpoint
19°C / 66°F
Humidity
100%
Altimeter
30.13" Hg
Pressure
1020.32 hPa
Previous

1 hour ago

KEKX 241035Z AUTO 00000KT 10SM CLR 19/19 A3013 RMK AO2 T01900188
Observed
May-24 @ 10:35 UTC
Visibility
10 SM
Flight Rules
VFR
Cloud Levels
  • Clear skies
Temperature
19°C / 66°F
Dewpoint
19°C / 66°F
Humidity
100%
Altimeter
30.13" Hg
Pressure
1020.32 hPa